Time;durP1;ratioP1;P1;durP2;ratioP2;P2;SDS_P1;SDS_P2;PMS_P1;PMS_P2;Temp;Humidity;BMP_temperature;BMP_pressure;BME280_temperature;BME280_humidity;BME280_pressure;Samples;Min_cycle;Max_cycle;Signal;HPM_P1;HPM_P2
2023/03/05 00:01:41;;;;;;;10.88;2.28;;;3.50;99.90;;;;;;5034738;28;20041;-70
2023/03/05 00:04:11;;;;;;;12.27;2.45;;;3.40;99.90;;;;;;5037293;28;20480;-69
2023/03/05 00:06:37;;;;;;;9.15;2.40;;;3.40;99.90;;;;;;5038501;28;20049;-68
2023/03/05 00:09:03;;;;;;;9.93;2.70;;;3.40;99.90;;;;;;5036573;28;20269;-69
2023/03/05 00:11:32;;;;;;;12.02;2.70;;;3.30;99.90;;;;;;5035308;28;20132;-68
2023/03/05 00:13:59;;;;;;;11.10;2.75;;;3.30;99.90;;;;;;5035307;28;21171;-69
2023/03/05 00:16:26;;;;;;;16.23;3.13;;;3.20;99.90;;;;;;5036191;28;20041;-69
2023/03/05 00:18:53;;;;;;;17.35;3.22;;;3.10;99.90;;;;;;5038938;28;20119;-69
2023/03/05 00:21:24;;;;;;;12.52;3.50;;;3.10;99.90;;;;;;5031615;28;20037;-69
2023/03/05 00:23:50;;;;;;;10.88;3.13;;;3.10;99.90;;;;;;5032642;28;20060;-69
2023/03/05 00:26:21;;;;;;;18.35;3.47;;;3.00;99.90;;;;;;5034588;28;20033;-70
2023/03/05 00:28:51;;;;;;;13.57;2.90;;;3.00;99.90;;;;;;5039986;28;20043;-69
2023/03/05 00:31:19;;;;;;;10.25;2.63;;;3.00;99.90;;;;;;5032901;28;20041;-69
2023/03/05 00:33:44;;;;;;;8.35;2.40;;;3.10;99.90;;;;;;5034138;28;20129;-69
2023/03/05 00:36:10;;;;;;;9.75;2.65;;;3.00;99.90;;;;;;5038582;28;20048;-69
2023/03/05 00:38:36;;;;;;;10.95;2.35;;;3.00;99.90;;;;;;5039196;28;20083;-68
2023/03/05 00:41:02;;;;;;;13.73;3.00;;;3.00;99.90;;;;;;5032900;28;20499;-68
2023/03/05 00:43:28;;;;;;;11.88;2.40;;;3.00;99.90;;;;;;5050958;28;20160;-69
2023/03/05 00:45:54;;;;;;;11.98;2.83;;;3.00;99.90;;;;;;5033930;28;20447;-69
2023/03/05 00:48:21;;;;;;;8.98;2.30;;;3.00;99.90;;;;;;5033074;28;20045;-69
2023/03/05 00:50:47;;;;;;;9.68;2.33;;;3.10;99.90;;;;;;5033180;28;20128;-68
2023/03/05 00:53:12;;;;;;;9.85;2.63;;;3.00;99.90;;;;;;5037905;28;20362;-68
2023/03/05 00:55:38;;;;;;;9.75;2.33;;;3.10;99.90;;;;;;5052217;28;20037;-68
2023/03/05 00:58:04;;;;;;;10.45;2.47;;;3.10;99.90;;;;;;5032692;28;20029;-68
2023/03/05 01:00:29;;;;;;;10.63;1.92;;;3.10;99.90;;;;;;5030204;28;20045;-69
2023/03/05 01:02:55;;;;;;;12.98;2.30;;;3.00;99.90;;;;;;5033725;28;20673;-69
2023/03/05 01:05:20;;;;;;;7.90;2.10;;;3.00;99.90;;;;;;5035545;28;20052;-69
2023/03/05 01:07:46;;;;;;;12.38;2.28;;;3.00;99.90;;;;;;5036074;28;20037;-69
2023/03/05 01:10:12;;;;;;;8.45;2.45;;;3.00;99.90;;;;;;5034265;28;20046;-68
2023/03/05 01:12:38;;;;;;;8.55;2.10;;;3.00;99.90;;;;;;5036046;28;20048;-68
2023/03/05 01:15:05;;;;;;;12.30;2.55;;;3.10;99.90;;;;;;5031921;28;20761;-68
2023/03/05 01:17:31;;;;;;;8.82;2.40;;;3.10;99.90;;;;;;5036506;28;20400;-69
2023/03/05 01:19:56;;;;;;;9.05;2.20;;;3.10;99.90;;;;;;5037177;28;20041;-68
2023/03/05 01:22:22;;;;;;;9.38;2.00;;;3.00;99.90;;;;;;5037054;28;20033;-69
2023/03/05 01:24:48;;;;;;;7.85;2.13;;;3.10;99.90;;;;;;5031434;28;20052;-68
2023/03/05 01:27:13;;;;;;;11.27;2.08;;;3.00;99.90;;;;;;5030312;28;20787;-69
2023/03/05 01:29:39;;;;;;;7.55;2.00;;;3.00;99.90;;;;;;5034193;28;20094;-69
2023/03/05 01:32:04;;;;;;;9.35;2.25;;;3.10;99.90;;;;;;5032342;28;20072;-69
2023/03/05 01:34:30;;;;;;;11.48;2.13;;;3.10;99.90;;;;;;5034561;28;20516;-68
2023/03/05 01:36:56;;;;;;;10.45;2.10;;;3.10;99.90;;;;;;5034525;28;20044;-68
2023/03/05 01:39:21;;;;;;;7.65;2.03;;;3.10;99.90;;;;;;5033800;28;20040;-69
2023/03/05 01:41:47;;;;;;;10.25;2.13;;;3.10;99.90;;;;;;5034499;28;20087;-69
2023/03/05 01:44:27;;;;;;;7.00;1.85;;;3.20;99.90;;;;;;5035710;28;20047;-69
2023/03/05 01:46:53;;;;;;;8.00;2.17;;;3.20;99.90;;;;;;5049713;28;20059;-69
2023/03/05 01:49:23;;;;;;;9.23;2.38;;;3.10;99.90;;;;;;5030275;28;20037;-68
2023/03/05 01:52:05;;;;;;;6.18;2.00;;;3.10;99.90;;;;;;5030229;28;20526;-69
2023/03/05 01:54:54;;;;;;;8.00;2.58;;;3.10;99.90;;;;;;5031802;28;20099;-69
2023/03/05 01:57:33;;;;;;;6.47;2.08;;;3.10;99.90;;;;;;5035473;28;20048;-70
2023/03/05 02:00:05;;;;;;;11.27;2.08;;;3.10;99.90;;;;;;5034782;28;20051;-69
2023/03/05 02:02:31;;;;;;;6.97;1.73;;;3.20;99.90;;;;;;5032760;28;20060;-69
2023/03/05 02:05:04;;;;;;;11.13;1.95;;;3.20;99.90;;;;;;5032305;28;20120;-69
2023/03/05 02:07:30;;;;;;;8.45;2.03;;;3.20;99.90;;;;;;5048232;28;20033;-68
2023/03/05 02:09:56;;;;;;;8.98;2.13;;;3.10;99.90;;;;;;5034959;28;20049;-70
2023/03/05 02:12:22;;;;;;;6.05;1.73;;;3.10;99.90;;;;;;5036036;28;20074;-69
2023/03/05 02:14:57;;;;;;;9.43;1.90;;;3.10;99.90;;;;;;5032538;28;20043;-68
2023/03/05 02:17:25;;;;;;;7.45;1.58;;;3.00;99.90;;;;;;5037591;28;20068;-69
2023/03/05 02:19:53;;;;;;;8.25;1.55;;;3.00;99.90;;;;;;5037069;28;20034;-68
2023/03/05 02:22:21;;;;;;;8.13;1.58;;;3.10;99.90;;;;;;5033631;28;20032;-69
2023/03/05 02:24:47;;;;;;;6.50;1.60;;;3.00;99.90;;;;;;5032433;28;20044;-68
2023/03/05 02:27:14;;;;;;;8.45;1.80;;;3.10;99.90;;;;;;5031163;28;20048;-69
2023/03/05 02:29:45;;;;;;;7.22;1.42;;;3.10;99.90;;;;;;5034959;28;20071;-68
2023/03/05 02:32:12;;;;;;;6.82;1.73;;;3.10;99.90;;;;;;5037719;28;20071;-68
2023/03/05 02:34:39;;;;;;;7.22;1.83;;;3.10;99.90;;;;;;5038523;28;20436;-68
2023/03/05 02:37:07;;;;;;;7.63;1.38;;;3.10;99.90;;;;;;5033827;28;20037;-68
2023/03/05 02:39:33;;;;;;;9.10;1.85;;;3.20;99.90;;;;;;5051914;28;20045;-69
2023/03/05 02:41:59;;;;;;;5.95;1.80;;;3.20;99.90;;;;;;5039009;28;20083;-69
2023/03/05 02:44:25;;;;;;;6.00;1.42;;;3.10;99.90;;;;;;5030844;28;20095;-69
2023/03/05 02:46:51;;;;;;;5.15;1.52;;;3.10;99.90;;;;;;5031901;28;20179;-68
2023/03/05 02:49:17;;;;;;;4.32;1.40;;;3.20;99.90;;;;;;5035597;28;20131;-68
2023/03/05 02:51:43;;;;;;;5.05;1.50;;;3.20;99.90;;;;;;5042981;28;20045;-68
2023/03/05 02:54:08;;;;;;;5.97;1.40;;;3.10;99.90;;;;;;5047887;28;20045;-68
2023/03/05 02:56:34;;;;;;;3.70;1.10;;;3.20;99.90;;;;;;5040475;28;20041;-68
2023/03/05 02:59:00;;;;;;;6.75;1.33;;;3.10;99.90;;;;;;5041850;28;20037;-68
2023/03/05 03:01:27;;;;;;;6.45;1.40;;;3.20;99.90;;;;;;5040373;28;20065;-69
2023/03/05 03:03:53;;;;;;;6.85;1.10;;;3.20;99.90;;;;;;5026729;28;20032;-69
2023/03/05 03:06:19;;;;;;;6.35;1.35;;;3.20;99.90;;;;;;5042460;28;20384;-69
2023/03/05 03:08:45;;;;;;;4.57;1.15;;;3.20;99.90;;;;;;5048943;28;20040;-69
2023/03/05 03:11:14;;;;;;;4.72;1.30;;;3.10;99.90;;;;;;5044100;28;20048;-70
2023/03/05 03:13:40;;;;;;;4.53;0.90;;;3.30;99.90;;;;;;5044791;28;20070;-69
2023/03/05 03:16:13;;;;;;;4.82;1.20;;;3.20;99.90;;;;;;5040347;28;20033;-73
2023/03/05 03:18:38;;;;;;;5.75;1.00;;;3.20;99.90;;;;;;5033516;28;20116;-74
2023/03/05 03:21:05;;;;;;;2.70;1.00;;;3.30;99.90;;;;;;5043849;28;20121;-74
2023/03/05 03:23:31;;;;;;;2.22;1.00;;;3.20;99.90;;;;;;5051230;28;20033;-73
2023/03/05 03:25:57;;;;;;;4.85;1.52;;;3.40;99.90;;;;;;5045759;28;20029;-73
2023/03/05 03:28:22;;;;;;;5.95;1.38;;;3.40;99.90;;;;;;5042200;28;20041;-71
2023/03/05 03:30:48;;;;;;;4.35;1.15;;;3.40;99.90;;;;;;5044689;28;20051;-74
2023/03/05 03:33:14;;;;;;;4.03;1.08;;;3.50;99.90;;;;;;5041095;28;20032;-73
2023/03/05 03:35:39;;;;;;;5.47;1.10;;;3.50;99.90;;;;;;5038183;28;20443;-72
2023/03/05 03:38:05;;;;;;;5.97;1.20;;;3.40;99.90;;;;;;5038577;28;20044;-72
2023/03/05 03:40:31;;;;;;;6.18;1.33;;;3.40;99.90;;;;;;5036858;28;20048;-71
2023/03/05 03:42:56;;;;;;;2.70;1.02;;;3.40;99.90;;;;;;5036939;28;20484;-71
2023/03/05 03:45:22;;;;;;;4.43;1.30;;;3.30;99.90;;;;;;5037929;28;20128;-71
2023/03/05 03:47:49;;;;;;;4.72;1.20;;;3.20;99.90;;;;;;5039761;28;20041;-70
2023/03/05 03:50:15;;;;;;;5.50;1.20;;;3.20;99.90;;;;;;5038377;28;20072;-71
2023/03/05 03:52:40;;;;;;;6.57;1.40;;;3.10;99.90;;;;;;5040105;28;20138;-71
2023/03/05 03:55:06;;;;;;;5.40;1.58;;;3.10;99.90;;;;;;5040213;28;20033;-71
2023/03/05 03:57:32;;;;;;;7.72;1.48;;;3.00;99.90;;;;;;5037860;28;20029;-70
2023/03/05 03:59:58;;;;;;;4.10;1.30;;;3.00;99.90;;;;;;5054864;28;20476;-70
2023/03/05 04:02:25;;;;;;;6.15;1.30;;;2.90;99.90;;;;;;5035529;28;20458;-70
2023/03/05 04:04:51;;;;;;;7.88;1.10;;;2.80;99.90;;;;;;5034145;28;20049;-70
2023/03/05 04:07:17;;;;;;;7.10;1.20;;;2.90;99.90;;;;;;5032967;28;20114;-71
2023/03/05 04:09:43;;;;;;;2.47;1.23;;;2.80;99.90;;;;;;5034958;28;20091;-71
2023/03/05 04:12:09;;;;;;;4.07;1.40;;;2.80;99.90;;;;;;5049285;28;20057;-70
2023/03/05 04:14:35;;;;;;;4.28;1.40;;;2.80;99.90;;;;;;5036933;28;20240;-71
2023/03/05 04:17:01;;;;;;;4.35;1.40;;;2.80;99.90;;;;;;5032557;28;20596;-70
2023/03/05 04:19:29;;;;;;;6.63;1.50;;;2.70;99.90;;;;;;5038342;28;20064;-70
2023/03/05 04:21:55;;;;;;;7.32;1.63;;;2.80;99.90;;;;;;5032049;28;20038;-70
2023/03/05 04:24:21;;;;;;;5.45;1.40;;;2.70;99.90;;;;;;5033842;28;20689;-70
2023/03/05 04:26:47;;;;;;;7.95;1.55;;;2.70;99.90;;;;;;5050649;28;20049;-70
2023/03/05 04:29:12;;;;;;;4.72;1.63;;;2.80;99.90;;;;;;5036904;28;20056;-70
2023/03/05 04:31:38;;;;;;;13.10;2.00;;;2.80;99.90;;;;;;5031770;28;20084;-70
2023/03/05 04:34:03;;;;;;;11.48;2.08;;;2.90;99.90;;;;;;5051042;28;20291;-70
2023/03/05 04:36:29;;;;;;;4.60;1.52;;;2.80;99.90;;;;;;5036504;28;20064;-70
2023/03/05 04:38:54;;;;;;;7.43;1.70;;;2.80;99.90;;;;;;5037680;28;20041;-71
2023/03/05 04:41:20;;;;;;;4.43;1.50;;;2.80;99.90;;;;;;5032171;28;20041;-71
2023/03/05 04:43:46;;;;;;;8.15;1.85;;;2.90;99.90;;;;;;5038302;28;20036;-70
2023/03/05 04:46:11;;;;;;;7.88;1.92;;;2.90;99.90;;;;;;5033849;28;20484;-70
2023/03/05 04:48:37;;;;;;;4.97;1.67;;;2.90;99.90;;;;;;5039854;28;20040;-70
2023/03/05 04:51:02;;;;;;;4.97;1.80;;;2.70;99.90;;;;;;5028490;28;20063;-70
2023/03/05 04:53:28;;;;;;;7.32;1.73;;;2.80;99.90;;;;;;5036218;28;20065;-70
2023/03/05 04:55:55;;;;;;;4.70;1.58;;;2.70;99.90;;;;;;5031652;28;20084;-70
2023/03/05 04:58:21;;;;;;;8.75;2.03;;;2.80;99.90;;;;;;5038183;28;20127;-70
2023/03/05 05:00:46;;;;;;;8.23;1.80;;;2.80;99.90;;;;;;5039245;28;20075;-70
2023/03/05 05:03:12;;;;;;;8.52;1.70;;;2.70;99.90;;;;;;5033887;28;20040;-70
2023/03/05 05:05:38;;;;;;;10.35;1.90;;;2.70;99.90;;;;;;5036541;28;20129;-70
2023/03/05 05:08:03;;;;;;;3.83;1.80;;;2.70;99.90;;;;;;5029005;28;20044;-69
2023/03/05 05:10:30;;;;;;;10.32;1.90;;;2.70;99.90;;;;;;5034974;28;20137;-70
2023/03/05 05:12:56;;;;;;;9.30;2.10;;;2.80;99.90;;;;;;5037302;28;20037;-71
2023/03/05 05:15:22;;;;;;;8.05;2.08;;;2.70;99.90;;;;;;5033246;28;20562;-70
2023/03/05 05:17:47;;;;;;;10.15;1.77;;;2.80;99.90;;;;;;5034741;28;20041;-70
2023/03/05 05:20:15;;;;;;;6.07;1.90;;;2.70;99.90;;;;;;5056596;28;20455;-70
2023/03/05 05:22:40;;;;;;;7.97;2.00;;;2.70;99.90;;;;;;5033774;28;20049;-70
2023/03/05 05:25:07;;;;;;;7.43;1.60;;;2.70;99.90;;;;;;5035585;28;20053;-70
2023/03/05 05:27:33;;;;;;;4.50;1.58;;;2.70;99.90;;;;;;5035378;28;20460;-70
2023/03/05 05:29:58;;;;;;;5.50;1.85;;;2.70;99.90;;;;;;5034493;28;20120;-70
2023/03/05 05:32:24;;;;;;;4.25;1.60;;;2.70;99.90;;;;;;5031211;28;20127;-69
2023/03/05 05:34:57;;;;;;;5.85;1.70;;;2.70;99.90;;;;;;5036751;28;20080;-70
2023/03/05 05:37:24;;;;;;;4.82;1.70;;;2.60;99.90;;;;;;5028793;28;20472;-70
2023/03/05 05:39:50;;;;;;;8.18;1.75;;;2.70;99.90;;;;;;5033821;28;20028;-71
2023/03/05 05:42:21;;;;;;;5.63;1.77;;;2.80;99.90;;;;;;5045359;28;20106;-70
2023/03/05 05:44:46;;;;;;;9.20;1.90;;;2.60;99.90;;;;;;5030925;28;20068;-70
2023/03/05 05:47:14;;;;;;;8.10;1.73;;;2.80;99.90;;;;;;5034608;28;20041;-70
2023/03/05 05:49:39;;;;;;;6.40;2.08;;;2.70;99.90;;;;;;5049310;28;20114;-70
2023/03/05 05:52:05;;;;;;;8.75;1.92;;;2.70;99.90;;;;;;5035349;28;20492;-70
2023/03/05 05:54:31;;;;;;;7.25;1.60;;;2.80;99.90;;;;;;5038580;28;20040;-70
2023/03/05 05:56:56;;;;;;;6.40;1.80;;;2.80;99.90;;;;;;5032699;28;20033;-70
2023/03/05 05:59:22;;;;;;;5.93;1.80;;;2.70;99.90;;;;;;5033714;28;20499;-69
2023/03/05 06:01:48;;;;;;;7.70;1.92;;;2.60;99.90;;;;;;5035033;28;20037;-69
2023/03/05 06:04:13;;;;;;;8.50;1.77;;;2.70;99.90;;;;;;5034872;28;20110;-70
2023/03/05 06:06:39;;;;;;;6.18;1.55;;;2.70;99.90;;;;;;5034578;28;20132;-70
2023/03/05 06:09:05;;;;;;;4.43;1.60;;;2.70;99.90;;;;;;5050738;28;20045;-70
2023/03/05 06:11:31;;;;;;;7.10;1.55;;;2.60;99.90;;;;;;5026968;28;20092;-70
2023/03/05 06:13:56;;;;;;;5.47;1.60;;;2.60;99.90;;;;;;5036357;28;20045;-71
2023/03/05 06:16:23;;;;;;;8.32;1.90;;;2.50;99.90;;;;;;5035307;28;20641;-70
2023/03/05 06:18:50;;;;;;;8.75;2.20;;;2.60;99.90;;;;;;5034009;28;20033;-70
2023/03/05 06:21:17;;;;;;;4.75;1.60;;;2.60;99.90;;;;;;5031147;28;20069;-69
2023/03/05 06:23:44;;;;;;;4.40;1.85;;;2.50;99.90;;;;;;5031563;28;20048;-70
2023/03/05 06:26:12;;;;;;;7.70;1.60;;;2.60;99.90;;;;;;5030251;28;20049;-69
2023/03/05 06:28:38;;;;;;;7.07;1.80;;;2.40;99.90;;;;;;5030699;28;20069;-70
2023/03/05 06:31:12;;;;;;;3.90;1.60;;;2.40;99.90;;;;;;5034225;28;20448;-70
2023/03/05 06:33:39;;;;;;;5.38;1.60;;;2.50;99.90;;;;;;5030900;28;20064;-70
2023/03/05 06:36:06;;;;;;;6.70;1.95;;;2.50;99.90;;;;;;5031731;28;20543;-69
2023/03/05 06:38:33;;;;;;;4.45;1.77;;;2.40;99.90;;;;;;5033088;28;20068;-70
2023/03/05 06:41:10;;;;;;;6.97;1.83;;;2.50;99.90;;;;;;5033634;28;20045;-69
2023/03/05 06:43:39;;;;;;;8.05;1.85;;;2.60;99.90;;;;;;5034427;28;20033;-70
2023/03/05 06:46:15;;;;;;;5.22;1.70;;;2.60;99.90;;;;;;5042157;28;20119;-68
2023/03/05 06:48:42;;;;;;;5.55;1.48;;;2.50;99.90;;;;;;5035010;28;20431;-70
2023/03/05 06:51:19;;;;;;;5.93;1.60;;;2.60;99.90;;;;;;5030173;28;20076;-70
2023/03/05 06:53:46;;;;;;;6.50;1.90;;;2.60;99.90;;;;;;5037740;28;20044;-71
2023/03/05 06:56:15;;;;;;;8.07;1.95;;;2.70;99.90;;;;;;5041870;28;20148;-70
2023/03/05 06:58:42;;;;;;;6.90;1.70;;;2.80;99.90;;;;;;5040628;28;20041;-70
2023/03/05 07:01:08;;;;;;;4.40;1.65;;;2.70;99.90;;;;;;5041544;28;20032;-70
2023/03/05 07:03:37;;;;;;;3.55;1.35;;;2.80;99.90;;;;;;5036445;28;20047;-68
2023/03/05 07:06:10;;;;;;;7.25;1.60;;;2.90;99.90;;;;;;5040261;28;20037;-70
2023/03/05 07:08:37;;;;;;;7.53;1.70;;;2.90;99.90;;;;;;5046935;28;20064;-70
2023/03/05 07:11:07;;;;;;;7.55;1.63;;;2.90;99.90;;;;;;5039239;28;20041;-70
2023/03/05 07:13:33;;;;;;;10.00;1.60;;;2.90;99.90;;;;;;5051502;28;20049;-69
2023/03/05 07:16:03;;;;;;;5.95;1.60;;;2.90;99.90;;;;;;5052842;28;20124;-69
2023/03/05 07:18:28;;;;;;;6.28;1.60;;;2.80;99.90;;;;;;5037811;28;20037;-70
2023/03/05 07:20:54;;;;;;;9.02;1.70;;;2.90;99.90;;;;;;5039964;28;20060;-70
2023/03/05 07:23:20;;;;;;;4.22;1.48;;;2.90;99.90;;;;;;5049051;28;20041;-70
2023/03/05 07:25:45;;;;;;;5.15;1.52;;;2.80;99.90;;;;;;5054141;28;20045;-70
2023/03/05 07:28:11;;;;;;;7.82;2.03;;;3.00;99.90;;;;;;5040884;28;20099;-70
2023/03/05 07:30:37;;;;;;;6.47;1.80;;;2.90;99.90;;;;;;5053200;28;20127;-70
2023/03/05 07:33:02;;;;;;;4.32;1.90;;;3.00;99.90;;;;;;5043404;28;20045;-70
2023/03/05 07:35:28;;;;;;;7.57;1.80;;;3.00;99.90;;;;;;5033863;28;20195;-69
2023/03/05 07:37:54;;;;;;;4.38;1.60;;;3.00;99.90;;;;;;5045650;28;20033;-70
2023/03/05 07:40:21;;;;;;;5.57;1.50;;;3.10;99.90;;;;;;5053058;28;20045;-69
2023/03/05 07:42:46;;;;;;;6.25;1.67;;;3.10;99.90;;;;;;5039664;28;20041;-70
2023/03/05 07:45:12;;;;;;;4.68;1.70;;;3.00;99.90;;;;;;5044462;28;20086;-69
2023/03/05 07:47:38;;;;;;;9.48;2.08;;;3.10;99.90;;;;;;5033923;28;20032;-69
2023/03/05 07:50:04;;;;;;;5.63;1.90;;;3.10;99.90;;;;;;5065808;28;20041;-69
2023/03/05 07:52:30;;;;;;;5.35;1.70;;;3.00;99.90;;;;;;5045420;28;20033;-70
2023/03/05 07:54:55;;;;;;;8.27;1.65;;;3.20;99.90;;;;;;5056007;28;20083;-70
2023/03/05 07:57:21;;;;;;;5.50;1.50;;;3.20;99.90;;;;;;5019806;28;20369;-70
2023/03/05 07:59:47;;;;;;;6.13;1.73;;;3.30;99.90;;;;;;5035768;28;20070;-69
2023/03/05 08:02:13;;;;;;;4.50;1.83;;;3.30;99.90;;;;;;5033968;28;20077;-69
2023/03/05 08:04:41;;;;;;;4.70;1.60;;;3.30;99.90;;;;;;5042352;28;20111;-70
2023/03/05 08:07:06;;;;;;;6.22;1.92;;;3.40;99.90;;;;;;5032963;28;20347;-70
2023/03/05 08:09:32;;;;;;;4.85;1.42;;;3.60;99.90;;;;;;5038915;28;20051;-70
2023/03/05 08:11:58;;;;;;;7.55;1.60;;;3.60;99.90;;;;;;5041029;28;20033;-70
2023/03/05 08:14:23;;;;;;;4.75;1.27;;;3.70;99.90;;;;;;5039191;28;20045;-70
2023/03/05 08:16:51;;;;;;;6.43;1.38;;;3.70;99.90;;;;;;5036702;28;20048;-70
2023/03/05 08:19:18;;;;;;;9.35;1.48;;;3.80;99.90;;;;;;5039664;28;20047;-71
2023/03/05 08:21:44;;;;;;;4.60;1.20;;;3.90;99.90;;;;;;5035666;28;20041;-71
2023/03/05 08:24:11;;;;;;;10.73;1.35;;;3.90;99.90;;;;;;5034621;28;20459;-70
2023/03/05 08:26:37;;;;;;;5.95;1.20;;;4.00;99.90;;;;;;5050763;28;20037;-70
2023/03/05 08:29:04;;;;;;;8.00;1.30;;;4.00;99.90;;;;;;5033379;28;20041;-70
2023/03/05 08:31:31;;;;;;;6.55;1.23;;;4.10;99.90;;;;;;5044912;28;20041;-70
2023/03/05 08:33:59;;;;;;;9.52;1.58;;;4.20;99.90;;;;;;5045628;28;20095;-70
2023/03/05 08:36:24;;;;;;;6.05;1.38;;;4.20;99.90;;;;;;5037223;28;20034;-70
2023/03/05 08:38:50;;;;;;;4.15;1.02;;;4.30;99.90;;;;;;5044828;28;20103;-71
2023/03/05 08:41:17;;;;;;;6.93;1.35;;;4.40;99.90;;;;;;5036093;28;20520;-70
2023/03/05 08:43:42;;;;;;;6.13;1.30;;;4.50;99.90;;;;;;5043721;28;20105;-70
2023/03/05 08:46:09;;;;;;;5.10;0.90;;;4.60;99.90;;;;;;5046239;28;20052;-70
2023/03/05 08:48:35;;;;;;;3.15;1.20;;;4.60;99.90;;;;;;5047750;28;20431;-70
2023/03/05 08:51:13;;;;;;;6.00;1.20;;;4.60;99.90;;;;;;5036977;28;20045;-70
2023/03/05 08:53:39;;;;;;;6.72;1.23;;;4.70;99.90;;;;;;5050471;28;20480;-70
2023/03/05 08:56:05;;;;;;;6.80;1.30;;;4.80;99.90;;;;;;5035613;28;20044;-70
2023/03/05 08:58:31;;;;;;;8.48;1.30;;;4.90;99.90;;;;;;5037262;28;20817;-70
2023/03/05 09:00:57;;;;;;;5.72;1.33;;;5.00;99.90;;;;;;5038447;28;20095;-70
2023/03/05 09:03:23;;;;;;;6.03;1.17;;;5.10;99.90;;;;;;5055026;28;20438;-71
2023/03/05 09:05:48;;;;;;;5.32;1.05;;;5.10;99.90;;;;;;5044127;28;20033;-70
2023/03/05 09:08:14;;;;;;;6.03;1.23;;;5.10;99.90;;;;;;5036400;28;20535;-70
2023/03/05 09:10:41;;;;;;;5.75;1.30;;;5.10;99.90;;;;;;5043687;28;20051;-70
2023/03/05 09:13:08;;;;;;;4.13;0.85;;;5.10;99.90;;;;;;5046205;28;20426;-69
2023/03/05 09:15:34;;;;;;;5.88;1.10;;;5.20;99.90;;;;;;5049215;28;20044;-70
2023/03/05 09:17:59;;;;;;;7.78;1.13;;;5.30;99.90;;;;;;5045548;28;20476;-72
2023/03/05 09:20:25;;;;;;;5.55;1.27;;;5.30;99.90;;;;;;5031790;28;20059;-71
2023/03/05 09:22:51;;;;;;;3.33;1.00;;;5.30;99.90;;;;;;5043180;28;20061;-71
2023/03/05 09:25:16;;;;;;;7.20;1.13;;;5.40;99.90;;;;;;5045092;28;20040;-69
2023/03/05 09:27:44;;;;;;;4.20;1.45;;;5.50;99.90;;;;;;5038698;28;20040;-71
2023/03/05 09:30:11;;;;;;;8.65;1.63;;;5.50;99.90;;;;;;5044531;28;20060;-70
2023/03/05 09:32:37;;;;;;;7.03;1.40;;;5.60;99.90;;;;;;5048207;28;20056;-70
2023/03/05 09:35:03;;;;;;;9.77;1.30;;;5.60;99.90;;;;;;5049002;28;20041;-70
2023/03/05 09:37:29;;;;;;;9.70;1.40;;;5.70;99.90;;;;;;5049393;28;20070;-71
2023/03/05 09:39:55;;;;;;;7.10;1.45;;;5.80;99.90;;;;;;5041542;28;20051;-70
2023/03/05 09:42:45;;;;;;;8.77;1.52;;;5.70;99.90;;;;;;5038369;28;20049;-69
2023/03/05 09:45:16;;;;;;;7.00;1.30;;;5.60;99.90;;;;;;5053516;28;20132;-69
2023/03/05 09:48:13;;;;;;;6.50;1.20;;;5.70;99.90;;;;;;5047576;28;20134;-69
2023/03/05 09:51:02;;;;;;;3.72;0.90;;;5.70;99.90;;;;;;5041566;28;20388;-71
2023/03/05 09:53:30;;;;;;;8.15;1.60;;;5.90;99.90;;;;;;5064530;28;20055;-70
2023/03/05 09:56:00;;;;;;;8.30;1.73;;;5.90;99.90;;;;;;5049818;28;20049;-70
2023/03/05 09:58:42;;;;;;;6.55;1.13;;;5.90;99.90;;;;;;5047026;28;20124;-73
2023/03/05 10:01:17;;;;;;;6.80;1.20;;;6.10;99.90;;;;;;5043344;28;20122;-72
2023/03/05 10:04:07;;;;;;;9.15;1.13;;;6.20;99.90;;;;;;5047111;28;20052;-71
2023/03/05 10:06:36;;;;;;;5.72;0.95;;;6.30;99.90;;;;;;5049637;28;20033;-74
2023/03/05 10:09:05;;;;;;;6.07;1.45;;;6.30;99.90;;;;;;5044821;28;20458;-72
2023/03/05 10:11:59;;;;;;;6.47;0.80;;;6.30;99.90;;;;;;5039723;28;20045;-72
2023/03/05 10:14:29;;;;;;;9.30;0.80;;;6.20;99.90;;;;;;5042622;28;20148;-71
2023/03/05 10:17:18;;;;;;;4.38;0.82;;;6.20;99.90;;;;;;5042569;28;20502;-70
2023/03/05 10:19:50;;;;;;;3.42;0.60;;;6.20;99.90;;;;;;5037872;28;20472;-73
2023/03/05 10:22:18;;;;;;;6.97;0.80;;;6.10;99.90;;;;;;5030827;28;20759;-70
2023/03/05 10:25:15;;;;;;;7.35;1.02;;;6.10;99.90;;;;;;5041709;28;20369;-72
2023/03/05 10:27:49;;;;;;;7.13;1.00;;;6.10;99.90;;;;;;5034187;28;20075;-73
2023/03/05 10:30:45;;;;;;;8.55;1.13;;;6.20;99.90;;;;;;5031288;28;20076;-72
2023/03/05 10:33:40;;;;;;;3.75;0.90;;;6.30;99.90;;;;;;5027635;28;20040;-73
2023/03/05 10:36:14;;;;;;;5.43;0.90;;;6.40;99.90;;;;;;5050966;28;20167;-73
2023/03/05 10:38:48;;;;;;;7.63;1.05;;;6.50;99.90;;;;;;5037349;28;20052;-72
2023/03/05 10:41:52;;;;;;;4.10;0.80;;;6.60;99.90;;;;;;5031946;28;20048;-71
2023/03/05 10:44:27;;;;;;;;;;;6.60;99.90;;;;;;5041576;28;20044;-72
2023/03/05 10:46:57;;;;;;;4.57;0.75;;;6.50;99.90;;;;;;5038353;28;19921;-72
2023/03/05 10:49:29;;;;;;;6.93;1.05;;;6.50;99.90;;;;;;5041202;28;20179;-70
2023/03/05 10:52:07;;;;;;;8.70;1.48;;;6.50;99.90;;;;;;5033824;28;20037;-71
2023/03/05 10:54:34;;;;;;;4.85;0.90;;;6.60;99.90;;;;;;5034621;28;20049;-72
2023/03/05 10:57:22;;;;;;;2.45;0.90;;;6.70;99.90;;;;;;5029250;28;20049;-73
2023/03/05 11:00:17;;;;;;;6.78;1.23;;;6.70;99.90;;;;;;5037735;28;22146;-73
2023/03/05 11:03:02;;;;;;;2.92;0.70;;;6.70;99.90;;;;;;5029126;28;20562;-71
2023/03/05 11:05:39;;;;;;;3.95;0.73;;;6.60;99.90;;;;;;5030242;28;20126;-73
2023/03/05 11:08:33;;;;;;;7.05;0.90;;;6.60;99.90;;;;;;5043483;28;21035;-71
2023/03/05 11:11:15;;;;;;;3.70;0.73;;;6.70;99.90;;;;;;5035510;28;20059;-69
2023/03/05 11:13:56;;;;;;;1.80;0.47;;;6.90;99.90;;;;;;5053094;28;20053;-69
2023/03/05 11:16:24;;;;;;;1.05;0.60;;;6.90;99.90;;;;;;5031667;28;20140;-71
2023/03/05 11:19:09;;;;;;;5.53;0.50;;;6.70;99.90;;;;;;5031153;28;20033;-74
2023/03/05 11:21:35;;;;;;;2.25;0.57;;;6.60;99.90;;;;;;5031861;28;20044;-72
2023/03/05 11:24:13;;;;;;;3.80;0.90;;;6.50;99.90;;;;;;5038576;28;20411;-71
2023/03/05 11:26:55;;;;;;;5.72;1.00;;;6.40;99.90;;;;;;5033621;28;20044;-70
2023/03/05 11:29:24;;;;;;;5.03;0.70;;;6.40;99.90;;;;;;5032038;28;20041;-72
2023/03/05 11:31:52;;;;;;;4.40;0.73;;;6.30;99.90;;;;;;5050503;28;20137;-70
2023/03/05 11:34:17;;;;;;;2.40;0.50;;;6.40;99.90;;;;;;5038409;28;20408;-71
2023/03/05 11:36:52;;;;;;;2.28;1.02;;;6.50;99.90;;;;;;5041095;28;20049;-73
2023/03/05 11:39:21;;;;;;;3.08;1.00;;;6.70;99.90;;;;;;5032129;28;20097;-74
2023/03/05 11:42:09;;;;;;;3.28;0.80;;;6.80;99.90;;;;;;5027240;28;20124;-71
2023/03/05 11:44:50;;;;;;;5.95;0.80;;;6.80;99.90;;;;;;5060135;28;20045;-72
2023/03/05 11:47:19;;;;;;;2.28;0.50;;;6.80;99.90;;;;;;5046016;28;20052;-71
2023/03/05 11:49:48;;;;;;;3.85;0.98;;;6.90;99.90;;;;;;5036049;28;20041;-70
2023/03/05 11:52:30;;;;;;;6.28;1.02;;;7.00;99.90;;;;;;5044660;28;20041;-71
2023/03/05 11:55:28;;;;;;;2.42;0.65;;;7.10;99.90;;;;;;5040228;28;20269;-72
2023/03/05 11:58:10;;;;;;;0.70;0.45;;;7.10;99.90;;;;;;5041898;28;20530;-66
2023/03/05 12:00:37;;;;;;;1.83;0.70;;;7.10;99.90;;;;;;5038012;28;20056;-67
2023/03/05 12:03:12;;;;;;;3.08;0.65;;;6.70;99.90;;;;;;5043022;28;20041;-68
2023/03/05 12:05:43;;;;;;;2.08;0.50;;;6.50;99.90;;;;;;5038995;28;20045;-69
2023/03/05 12:08:24;;;;;;;1.00;0.47;;;6.20;99.90;;;;;;5036733;28;20123;-71
2023/03/05 12:10:50;;;;;;;3.40;0.60;;;6.10;99.90;;;;;;5066712;28;20124;-73
2023/03/05 12:13:33;;;;;;;4.70;0.80;;;6.00;99.90;;;;;;5041630;28;20049;-71
2023/03/05 12:16:24;;;;;;;6.18;1.30;;;5.90;99.90;;;;;;5038512;28;20049;-71
2023/03/05 12:19:07;;;;;;;7.20;1.10;;;5.90;99.90;;;;;;5043539;28;20083;-71
2023/03/05 12:21:48;;;;;;;4.15;1.00;;;5.90;99.90;;;;;;5039533;28;20079;-70
2023/03/05 12:24:23;;;;;;;4.30;1.00;;;5.90;99.90;;;;;;5035503;28;20542;-70
2023/03/05 12:27:03;;;;;;;6.13;1.15;;;6.00;99.90;;;;;;5044682;28;20115;-70
2023/03/05 12:29:32;;;;;;;5.25;1.15;;;6.20;99.90;;;;;;5063952;28;20070;-70
2023/03/05 12:31:59;;;;;;;2.70;0.82;;;6.30;99.90;;;;;;5043680;28;20045;-69
2023/03/05 12:34:39;;;;;;;8.13;1.10;;;6.40;99.90;;;;;;5041025;28;20055;-69
2023/03/05 12:37:24;;;;;;;4.05;0.98;;;6.60;99.90;;;;;;5050241;28;20512;-70
2023/03/05 12:40:07;;;;;;;2.92;0.98;;;6.70;99.90;;;;;;5043815;28;20372;-70
2023/03/05 12:42:32;;;;;;;4.53;1.13;;;6.80;99.90;;;;;;5051353;28;20049;-70
2023/03/05 12:45:10;;;;;;;5.30;1.10;;;6.90;99.90;;;;;;5042096;28;20484;-69
2023/03/05 12:47:37;;;;;;;6.00;1.00;;;7.10;99.90;;;;;;5039480;28;20056;-70
2023/03/05 12:50:04;;;;;;;2.17;0.40;;;7.30;99.90;;;;;;5036076;28;20479;-69
2023/03/05 12:52:32;;;;;;;2.78;0.50;;;7.50;99.90;;;;;;5048061;28;20044;-70
2023/03/05 12:55:15;;;;;;;2.72;0.40;;;7.50;99.90;;;;;;5036415;28;20045;-68
2023/03/05 12:57:44;;;;;;;2.75;0.68;;;7.60;99.90;;;;;;5033608;28;20044;-73
2023/03/05 13:00:25;;;;;;;2.88;0.75;;;7.60;99.90;;;;;;5046760;28;20063;-70
2023/03/05 13:02:57;;;;;;;5.90;1.65;;;7.50;99.90;;;;;;5041731;28;20731;-69
2023/03/05 13:05:35;;;;;;;4.20;0.43;;;7.40;99.90;;;;;;5052038;28;20052;-69
2023/03/05 13:08:21;;;;;;;3.03;0.50;;;7.30;99.90;;;;;;5044195;28;20044;-69